Leavenworth, Washington
Current Conditions -  °F | °C
As of 2:55 AM on Wednesday 22 Oct 2014 (Local Time) from KEAT Reporting Station
Broken Clouds Broken Clouds  
Wind Chill: 51°   Ceiling: 12000
Heat Index: 51°   Visibility: 10mi
Dew Point: 42°   Wind: 10mph
Humidity: 71%   Direction: 100°E
Pressure: 29.85"   Gusts: NA
Location:  47.6°N, 120.66°W
Report Text: KEAT 220955Z AUTO 10009KT 10SM SCT080 BKN120 11/06 A2985 RMK AO2 SLP105 T01060056
Loading
Personal Weather Stations






























Interactive Weather Map New forecast layout! Learn more

10-Day Weather Forecast

Advertisements
Track Severe Weather on mobile